createdAt,value
2018-09-28T00:01:32.585Z,98574.06
2018-09-28T00:04:00.741Z,98573.31
2018-09-28T00:06:28.944Z,98573.75
2018-09-28T00:08:57.185Z,98571.28
2018-09-28T00:11:25.398Z,98564.08
2018-09-28T00:13:53.566Z,98557.98
2018-09-28T00:16:21.752Z,98558.59
2018-09-28T00:18:50.023Z,98557.67
2018-09-28T00:21:18.202Z,98558.53
2018-09-28T00:23:46.619Z,98554.05
2018-09-28T00:26:14.786Z,98555.47
2018-09-28T00:28:42.939Z,98545.44
2018-09-28T00:31:11.203Z,98550.91
2018-09-28T00:33:39.370Z,98546.54
2018-09-28T00:36:07.542Z,98544.94
2018-09-28T00:38:35.714Z,98544.87
2018-09-28T00:41:03.889Z,98552.42
2018-09-28T00:43:32.049Z,98543.33
2018-09-28T00:46:00.299Z,98542.64
2018-09-28T00:48:29.455Z,98537.17
2018-09-28T00:50:57.613Z,98533.27
2018-09-28T00:53:25.850Z,98531.13
2018-09-28T00:55:54.065Z,98531.37
2018-09-28T00:58:22.228Z,98532.09
2018-09-28T01:00:50.420Z,98517.31
2018-09-28T01:03:18.837Z,98520.76
2018-09-28T01:05:47.021Z,98517.20
2018-09-28T01:08:15.195Z,98518.48
2018-09-28T01:10:43.413Z,98524.76
2018-09-28T01:13:11.736Z,98517.85
2018-09-28T01:15:39.983Z,98517.66
2018-09-28T01:18:08.513Z,98510.89
2018-09-28T01:20:36.664Z,98506.28
2018-09-28T01:23:04.844Z,98501.27
2018-09-28T01:25:33.028Z,98512.44
2018-09-28T01:28:01.181Z,98510.64
2018-09-28T01:30:29.774Z,98509.64
2018-09-28T01:32:57.926Z,98516.36
2018-09-28T01:35:26.212Z,98503.89
2018-09-28T01:37:54.374Z,98505.90
2018-09-28T01:40:22.533Z,98503.69
2018-09-28T01:42:50.755Z,98504.89
2018-09-28T01:45:18.988Z,98504.03
2018-09-28T01:47:47.297Z,98503.44
2018-09-28T01:50:15.529Z,98497.05
2018-09-28T01:52:43.736Z,98503.06
2018-09-28T01:55:12.243Z,98506.97
2018-09-28T01:57:40.820Z,98503.56
2018-09-28T02:00:08.966Z,98504.87
2018-09-28T02:02:37.117Z,98498.16
2018-09-28T02:05:05.401Z,98500.27
2018-09-28T02:07:33.575Z,98491.34
2018-09-28T02:10:01.737Z,98487.84
2018-09-28T02:12:29.937Z,98488.44
2018-09-28T02:14:58.404Z,98484.03
2018-09-28T02:17:26.588Z,98485.14
2018-09-28T02:19:54.750Z,98475.67
2018-09-28T02:22:22.930Z,98481.28
2018-09-28T02:24:51.160Z,98476.47
2018-09-28T02:27:19.318Z,98474.97
2018-09-28T02:29:47.529Z,98465.70
2018-09-28T02:32:15.849Z,98466.02
2018-09-28T02:34:44.068Z,98458.80
2018-09-28T02:37:12.578Z,98453.95
2018-09-28T02:39:40.909Z,98452.05
2018-09-28T02:42:09.156Z,98447.28
2018-09-28T02:44:37.417Z,98451.66
2018-09-28T02:47:05.739Z,98444.91
2018-09-28T02:49:34.030Z,98444.66
2018-09-28T02:52:02.401Z,98447.70
2018-09-28T02:54:30.730Z,98439.89
2018-09-28T02:56:58.982Z,98431.59
2018-09-28T02:59:27.081Z,98430.84
2018-09-28T03:01:55.343Z,98425.13
2018-09-28T03:04:23.482Z,98425.23
2018-09-28T03:06:52.039Z,98426.48
2018-09-28T03:09:20.273Z,98424.93
2018-09-28T03:11:48.471Z,98429.03
2018-09-28T03:14:16.643Z,98426.58
2018-09-28T03:16:44.812Z,98420.42
2018-09-28T03:19:13.072Z,98425.83
2018-09-28T03:21:41.258Z,98431.48
2018-09-28T03:24:09.522Z,98424.68
2018-09-28T03:26:37.681Z,98422.63
2018-09-28T03:29:05.960Z,98423.37
2018-09-28T03:31:34.119Z,98423.73
2018-09-28T03:34:02.336Z,98419.12
2018-09-28T03:36:30.824Z,98427.58
2018-09-28T03:38:58.978Z,98419.52
2018-09-28T03:41:27.354Z,98420.33
2018-09-28T03:43:55.533Z,98422.87
2018-09-28T03:46:23.688Z,98430.00
2018-09-28T03:48:51.860Z,98418.02
2018-09-28T03:51:20.064Z,98426.33
2018-09-28T03:53:48.322Z,98432.38
2018-09-28T03:56:16.497Z,98430.11
2018-09-28T03:58:44.693Z,98429.31
2018-09-28T04:01:12.939Z,98426.31
2018-09-28T04:03:41.097Z,98424.91
2018-09-28T04:06:09.271Z,98423.95
2018-09-28T04:08:37.417Z,98424.55
2018-09-28T04:11:05.697Z,98432.75
2018-09-28T04:13:33.849Z,98434.35
2018-09-28T04:16:02.098Z,98436.66
2018-09-28T04:18:30.270Z,98445.91
2018-09-28T04:20:58.741Z,98435.95
2018-09-28T04:23:26.901Z,98436.91
2018-09-28T04:25:55.093Z,98431.85
2018-09-28T04:28:23.261Z,98439.00
2018-09-28T04:30:51.657Z,98443.94
2018-09-28T04:33:19.844Z,98440.78
2018-09-28T04:35:48.268Z,98443.54
2018-09-28T04:38:16.408Z,98441.39
2018-09-28T04:40:44.578Z,98443.78
2018-09-28T04:43:12.832Z,98451.29
2018-09-28T04:45:41.086Z,98441.41
2018-09-28T04:48:09.439Z,98442.41
2018-09-28T04:50:37.674Z,98445.36
2018-09-28T04:53:05.931Z,98451.22
2018-09-28T04:55:34.281Z,98447.72
2018-09-28T04:58:02.638Z,98446.67
2018-09-28T05:00:30.865Z,98449.62
2018-09-28T05:02:59.137Z,98448.77
2018-09-28T05:05:27.311Z,98444.02
2018-09-28T05:07:55.491Z,98444.63
2018-09-28T05:10:23.973Z,98449.73
2018-09-28T05:12:52.710Z,98442.73
2018-09-28T05:15:20.995Z,98440.79
2018-09-28T05:17:49.165Z,98442.14
2018-09-28T05:20:17.506Z,98449.05
2018-09-28T05:22:45.679Z,98451.75
2018-09-28T05:25:13.898Z,98452.05
2018-09-28T05:27:42.033Z,98454.06
2018-09-28T05:30:10.500Z,98456.37
2018-09-28T05:32:38.809Z,98451.21
2018-09-28T05:35:06.853Z,98463.58
2018-09-28T05:37:35.009Z,98462.73
2018-09-28T05:40:03.245Z,98451.59
2018-09-28T05:42:31.608Z,98459.59
2018-09-28T05:44:59.793Z,98450.62
2018-09-28T05:47:27.956Z,98450.47
2018-09-28T05:49:56.128Z,98450.89
2018-09-28T05:52:24.293Z,98453.37
2018-09-28T05:54:52.450Z,98459.36
2018-09-28T05:57:20.754Z,98457.76
2018-09-28T05:59:54.348Z,98462.02
2018-09-28T06:02:27.865Z,98462.70
2018-09-28T06:05:01.434Z,98461.39
2018-09-28T06:07:29.718Z,98453.70
2018-09-28T06:09:57.929Z,98458.38
2018-09-28T06:12:26.145Z,98458.20
2018-09-28T06:14:54.586Z,98454.61
2018-09-28T06:17:22.833Z,98458.44
2018-09-28T06:19:51.121Z,98457.41
2018-09-28T06:22:19.309Z,98459.25
2018-09-28T06:24:47.470Z,98455.34
2018-09-28T06:27:15.680Z,98457.64
2018-09-28T06:29:43.927Z,98458.86
2018-09-28T06:32:12.145Z,98456.95
2018-09-28T06:34:40.308Z,98455.14
2018-09-28T06:37:09.159Z,98460.70
2018-09-28T06:39:37.386Z,98465.19
2018-09-28T06:42:05.680Z,98464.73
2018-09-28T06:44:33.762Z,98464.16
2018-09-28T06:47:02.016Z,98467.14
2018-09-28T06:49:30.184Z,98460.81
2018-09-28T06:51:58.368Z,98462.40
2018-09-28T06:54:26.642Z,98465.66
2018-09-28T06:56:54.808Z,98466.81
2018-09-28T06:59:23.004Z,98474.92
2018-09-28T07:01:51.164Z,98469.36
2018-09-28T07:04:19.342Z,98465.14
2018-09-28T07:06:47.527Z,98465.08
2018-09-28T07:09:15.769Z,98471.67
2018-09-28T07:11:43.960Z,98474.95
2018-09-28T07:14:12.146Z,98474.45
2018-09-28T07:16:40.978Z,98474.45
2018-09-28T07:19:09.266Z,98476.23
2018-09-28T07:21:37.657Z,98479.30
2018-09-28T07:24:05.852Z,98477.94
2018-09-28T07:26:34.349Z,98476.27
2018-09-28T07:29:02.532Z,98477.08
2018-09-28T07:31:30.709Z,98470.73
2018-09-28T07:33:58.887Z,98475.28
2018-09-28T07:36:27.242Z,98473.06
2018-09-28T07:38:55.304Z,98474.67
2018-09-28T07:41:23.505Z,98473.80
2018-09-28T07:43:51.680Z,98473.45
2018-09-28T07:46:20.225Z,98483.59
2018-09-28T07:48:48.419Z,98484.61
2018-09-28T07:51:16.619Z,98480.75
2018-09-28T07:53:44.808Z,98485.53
2018-09-28T07:56:12.972Z,98485.74
2018-09-28T07:58:41.272Z,98487.22
2018-09-28T08:01:09.582Z,98485.97
2018-09-28T08:03:37.768Z,98486.71
2018-09-28T08:06:05.953Z,98491.36
2018-09-28T08:08:34.259Z,98490.61
2018-09-28T08:11:02.507Z,98489.89
2018-09-28T08:13:30.785Z,98492.23
2018-09-28T08:15:58.970Z,98489.03
2018-09-28T08:18:27.218Z,98488.45
2018-09-28T08:20:55.454Z,98485.27
2018-09-28T08:23:23.740Z,98486.74
2018-09-28T08:25:51.873Z,98479.39
2018-09-28T08:28:20.050Z,98476.02
2018-09-28T08:30:48.232Z,98485.99
2018-09-28T08:33:16.421Z,98478.72
2018-09-28T08:35:44.669Z,98484.05
2018-09-28T08:38:13.085Z,98483.25
2018-09-28T08:40:41.252Z,98484.87
2018-09-28T08:43:09.421Z,98480.37
2018-09-28T08:45:37.590Z,98481.54
2018-09-28T08:48:06.312Z,98488.44
2018-09-28T08:50:34.740Z,98483.00
2018-09-28T08:53:03.000Z,98477.16
2018-09-28T08:55:31.182Z,98471.73
2018-09-28T08:57:59.475Z,98476.26
2018-09-28T09:00:27.652Z,98476.56
2018-09-28T09:02:55.823Z,98472.95
2018-09-28T09:05:24.008Z,98467.47
2018-09-28T09:07:52.195Z,98468.45
2018-09-28T09:10:20.404Z,98461.19
2018-09-28T09:12:49.032Z,98460.52
2018-09-28T09:15:17.204Z,98458.25
2018-09-28T09:17:45.589Z,98457.77
2018-09-28T09:20:13.748Z,98461.03
2018-09-28T09:22:41.944Z,98459.09
2018-09-28T09:25:10.176Z,98454.11
2018-09-28T09:27:38.369Z,98458.23
2018-09-28T09:30:06.764Z,98458.88
2018-09-28T09:32:34.944Z,98458.83
2018-09-28T09:35:03.137Z,98459.08
2018-09-28T09:37:31.360Z,98463.58
2018-09-28T09:39:59.532Z,98463.13
2018-09-28T09:42:27.830Z,98460.83
2018-09-28T09:44:55.973Z,98453.41
2018-09-28T09:47:24.150Z,98452.00
2018-09-28T09:49:52.321Z,98447.63
2018-09-28T09:52:20.581Z,98441.56
2018-09-28T09:54:48.765Z,98437.28
2018-09-28T09:57:17.101Z,98436.58
2018-09-28T09:59:45.312Z,98426.92
2018-09-28T10:02:18.908Z,98425.88
2018-09-28T10:04:47.069Z,98425.88
2018-09-28T10:07:15.330Z,98427.34
2018-09-28T10:09:43.556Z,98421.65
2018-09-28T10:12:11.770Z,98414.93
2018-09-28T10:14:39.902Z,98413.26
2018-09-28T10:17:08.836Z,98412.17
2018-09-28T10:19:37.057Z,98415.59
2018-09-28T10:22:05.184Z,98416.37
2018-09-28T10:24:33.450Z,98416.06
2018-09-28T10:27:01.733Z,98410.28
2018-09-28T10:29:29.837Z,98416.45
2018-09-28T10:31:58.054Z,98414.42
2018-09-28T10:34:26.329Z,98403.38
2018-09-28T10:36:54.413Z,98398.28
2018-09-28T10:39:22.748Z,98392.61
2018-09-28T10:41:50.849Z,98388.73
2018-09-28T10:44:19.117Z,98391.67
2018-09-28T10:46:47.393Z,98395.91
2018-09-28T10:49:15.565Z,98383.86
2018-09-28T10:51:43.927Z,98381.95
2018-09-28T10:54:12.133Z,98381.45
2018-09-28T10:56:40.355Z,98370.72
2018-09-28T10:59:08.975Z,98368.63
2018-09-28T11:01:37.533Z,98369.30
2018-09-28T11:04:05.784Z,98367.81
2018-09-28T11:06:34.014Z,98367.42
2018-09-28T11:09:02.349Z,98361.67
2018-09-28T11:11:30.444Z,98358.87
2018-09-28T11:13:58.638Z,98360.76
2018-09-28T11:16:26.863Z,98353.69
2018-09-28T11:18:55.117Z,98357.28
2018-09-28T11:21:23.300Z,98348.13
2018-09-28T11:23:51.538Z,98332.96
2018-09-28T11:26:19.727Z,98333.58
2018-09-28T11:28:47.991Z,98327.14
2018-09-28T11:31:16.277Z,98319.91
2018-09-28T11:33:44.509Z,98315.61
2018-09-28T11:36:12.717Z,98321.41
2018-09-28T11:38:40.899Z,98318.70
2018-09-28T11:41:09.082Z,98320.19
2018-09-28T11:43:37.259Z,98323.52
2018-09-28T11:46:05.446Z,98311.92
2018-09-28T11:48:35.338Z,98307.11
2018-09-28T11:51:03.512Z,98307.11
2018-09-28T11:53:31.811Z,98301.59
2018-09-28T11:56:00.056Z,98298.20
2018-09-28T11:58:28.337Z,98297.84
2018-09-28T12:00:56.673Z,98293.42
2018-09-28T12:03:24.923Z,98288.09
2018-09-28T12:05:52.993Z,98279.06
2018-09-28T12:08:21.388Z,98273.13
2018-09-28T12:10:49.667Z,98269.99
2018-09-28T12:13:18.084Z,98260.88
2018-09-28T12:15:46.426Z,98263.82
2018-09-28T12:18:14.618Z,98256.21
2018-09-28T12:20:42.820Z,98253.41
2018-09-28T12:23:11.012Z,98255.11
2018-09-28T12:25:39.170Z,98252.19
2018-09-28T12:28:07.400Z,98247.25
2018-09-28T12:30:35.652Z,98248.29
2018-09-28T12:33:03.875Z,98245.03
2018-09-28T12:35:32.080Z,98234.59
2018-09-28T12:38:00.345Z,98234.53
2018-09-28T12:40:28.611Z,98232.66
2018-09-28T12:42:56.790Z,98234.52
2018-09-28T12:45:25.074Z,98227.06
2018-09-28T12:47:53.178Z,98229.26
2018-09-28T12:50:21.425Z,98221.39
2018-09-28T12:52:49.563Z,98218.91
2018-09-28T12:55:17.743Z,98209.75
2018-09-28T12:57:45.902Z,98208.69
2018-09-28T13:00:14.139Z,98204.16
2018-09-28T13:02:42.354Z,98210.35
2018-09-28T13:05:10.466Z,98205.83
2018-09-28T13:07:38.751Z,98202.42
2018-09-28T13:10:07.111Z,98202.68
2018-09-28T13:12:35.323Z,98192.88
2018-09-28T13:15:03.628Z,98194.45
2018-09-28T13:17:31.821Z,98194.29
2018-09-28T13:19:59.976Z,98178.25
2018-09-28T13:22:28.510Z,98183.16
2018-09-28T13:24:56.780Z,98168.47
2018-09-28T13:27:24.998Z,98182.84
2018-09-28T13:29:53.252Z,98177.08
2018-09-28T13:32:21.674Z,98168.66
2018-09-28T13:34:49.768Z,98170.08
2018-09-28T13:37:18.074Z,98165.76
2018-09-28T13:39:46.426Z,98158.20
2018-09-28T13:42:14.812Z,98166.16
2018-09-28T13:44:43.017Z,98162.63
2018-09-28T13:47:11.155Z,98166.71
2018-09-28T13:49:39.337Z,98160.47
2018-09-28T13:52:07.747Z,98150.89
2018-09-28T13:54:35.824Z,98151.08
2018-09-28T13:57:04.157Z,98143.92
2018-09-28T13:59:32.930Z,98147.75
2018-09-28T14:02:01.122Z,98147.97
2018-09-28T14:04:29.396Z,98144.62
2018-09-28T14:06:57.841Z,98145.58
2018-09-28T14:09:25.943Z,98146.33
2018-09-28T14:11:54.101Z,98140.69
2018-09-28T14:14:22.313Z,98144.28
2018-09-28T14:16:50.806Z,98142.70
2018-09-28T14:19:19.457Z,98143.09
2018-09-28T14:21:47.749Z,98144.41
2018-09-28T14:24:16.042Z,98136.56
2018-09-28T14:26:44.350Z,98136.05
2018-09-28T14:29:12.638Z,98142.44
2018-09-28T14:31:40.815Z,98144.84
2018-09-28T14:34:09.093Z,98141.21
2018-09-28T14:36:37.249Z,98138.52
2018-09-28T14:39:06.780Z,98134.94
2018-09-28T14:41:35.078Z,98139.83
2018-09-28T14:44:03.264Z,98141.83
2018-09-28T14:46:31.511Z,98141.81
2018-09-28T14:48:59.847Z,98142.13
2018-09-28T14:51:27.969Z,98144.80
2018-09-28T14:53:56.253Z,98133.05
2018-09-28T14:56:24.426Z,98137.53
2018-09-28T14:58:52.738Z,98135.33
2018-09-28T15:01:21.109Z,98133.88
2018-09-28T15:03:49.085Z,98137.95
2018-09-28T15:06:17.404Z,98137.69
2018-09-28T15:08:45.606Z,98131.09
2018-09-28T15:11:13.757Z,98142.56
2018-09-28T15:13:41.953Z,98145.77
2018-09-28T15:16:10.219Z,98149.59
2018-09-28T15:18:38.737Z,98150.42
2018-09-28T15:21:06.973Z,98158.11
2018-09-28T15:23:35.269Z,98162.23
2018-09-28T15:26:03.443Z,98157.81
2018-09-28T15:28:31.840Z,98159.28
2018-09-28T15:31:00.081Z,98158.14
2018-09-28T15:33:28.277Z,98161.78
2018-09-28T15:35:56.456Z,98156.22
2018-09-28T15:38:24.624Z,98165.48
2018-09-28T15:40:53.131Z,98168.46
2018-09-28T15:43:21.367Z,98173.08
2018-09-28T15:45:55.832Z,98169.80
2018-09-28T15:48:24.676Z,98169.86
2018-09-28T15:50:52.859Z,98168.27
2018-09-28T15:53:21.270Z,98172.06
2018-09-28T15:55:49.554Z,98169.23
2018-09-28T15:58:17.838Z,98173.42
2018-09-28T16:00:46.020Z,98170.51
2018-09-28T16:03:14.245Z,98174.44
2018-09-28T16:05:42.416Z,98173.72
2018-09-28T16:08:10.867Z,98186.41
2018-09-28T16:10:39.094Z,98183.98
2018-09-28T16:13:07.385Z,98186.04
2018-09-28T16:15:35.598Z,98189.57
2018-09-28T16:18:03.766Z,98193.23
2018-09-28T16:20:31.922Z,98188.51
2018-09-28T16:23:00.257Z,98196.30
2018-09-28T16:25:28.414Z,98205.27
2018-09-28T16:27:56.618Z,98205.44
2018-09-28T16:30:24.769Z,98207.05
2018-09-28T16:32:53.300Z,98219.89
2018-09-28T16:35:21.497Z,98221.89
2018-09-28T16:37:49.708Z,98213.84
2018-09-28T16:40:17.896Z,98216.59
2018-09-28T16:42:46.083Z,98221.88
2018-09-28T16:45:14.268Z,98221.07
2018-09-28T16:47:42.557Z,98227.50
2018-09-28T16:50:10.764Z,98222.47
2018-09-28T16:52:38.930Z,98223.95
2018-09-28T16:55:07.117Z,98229.53
2018-09-28T16:57:35.315Z,98231.78
2018-09-28T17:00:03.448Z,98235.05
2018-09-28T17:02:31.634Z,98234.19
2018-09-28T17:04:59.811Z,98243.69
2018-09-28T17:07:27.976Z,98244.49
2018-09-28T17:09:56.274Z,98255.91
2018-09-28T17:12:24.532Z,98256.97
2018-09-28T17:14:52.698Z,98265.05
2018-09-28T17:17:20.868Z,98261.64
2018-09-28T17:19:49.048Z,98267.91
2018-09-28T17:22:17.243Z,98270.88
2018-09-28T17:24:45.420Z,98269.38
2018-09-28T17:27:13.678Z,98273.22
2018-09-28T17:29:41.821Z,98271.47
2018-09-28T17:32:10.889Z,98269.52
2018-09-28T17:34:39.125Z,98278.66
2018-09-28T17:37:07.490Z,98285.65
2018-09-28T17:39:36.674Z,98297.62
2018-09-28T17:42:04.841Z,98296.83
2018-09-28T17:44:33.022Z,98303.02
2018-09-28T17:47:01.205Z,98305.23
2018-09-28T17:49:29.465Z,98307.92
2018-09-28T17:51:57.677Z,98313.94
2018-09-28T17:54:25.957Z,98321.61
2018-09-28T17:56:54.228Z,98333.77
2018-09-28T17:59:22.393Z,98342.35
2018-09-28T18:01:51.234Z,98344.30
2018-09-28T18:04:19.606Z,98349.12
2018-09-28T18:06:47.748Z,98350.55
2018-09-28T18:09:15.936Z,98355.84
2018-09-28T18:11:44.194Z,98361.97
2018-09-28T18:14:12.359Z,98370.31
2018-09-28T18:16:40.547Z,98364.75
2018-09-28T18:19:09.273Z,98375.84
2018-09-28T18:21:37.693Z,98381.84
2018-09-28T18:24:05.897Z,98382.23
2018-09-28T18:26:34.156Z,98392.05
2018-09-28T18:29:02.333Z,98391.38
2018-09-28T18:31:30.581Z,98392.98
2018-09-28T18:33:58.745Z,98403.66
2018-09-28T18:36:27.069Z,98400.27
2018-09-28T18:38:55.549Z,98401.28
2018-09-28T18:41:23.783Z,98403.90
2018-09-28T18:43:51.964Z,98402.59
2018-09-28T18:46:20.173Z,98409.45
2018-09-28T18:48:48.336Z,98410.83
2018-09-28T18:51:16.601Z,98419.39
2018-09-28T18:53:45.205Z,98422.50
2018-09-28T18:56:13.675Z,98434.40
2018-09-28T18:58:42.900Z,98435.20
2018-09-28T19:01:11.747Z,98444.57
2018-09-28T19:03:41.021Z,98441.45
2018-09-28T19:06:09.996Z,98444.75
2018-09-28T19:08:39.118Z,98452.72
2018-09-28T19:11:08.201Z,98447.02
2018-09-28T19:13:37.403Z,98448.06
2018-09-28T19:16:07.679Z,98450.30
2018-09-28T19:18:36.870Z,98451.71
2018-09-28T19:21:06.166Z,98460.41
2018-09-28T19:23:35.122Z,98472.80
2018-09-28T19:26:04.335Z,98476.53
2018-09-28T19:28:33.454Z,98478.95
2018-09-28T19:31:02.560Z,98475.27
2018-09-28T19:33:30.856Z,98483.82
2018-09-28T19:35:59.050Z,98486.59
2018-09-28T19:38:27.277Z,98487.96
2018-09-28T19:40:55.479Z,98496.52
2018-09-28T19:43:24.540Z,98503.16
2018-09-28T19:45:53.656Z,98502.91
2018-09-28T19:48:22.966Z,98511.70
2018-09-28T19:50:52.225Z,98521.22
2018-09-28T19:53:21.647Z,98524.54
2018-09-28T19:55:51.992Z,98528.71
2018-09-28T19:58:21.278Z,98533.07
2018-09-28T20:00:50.536Z,98528.22
2018-09-28T20:03:19.862Z,98533.34
2018-09-28T20:05:48.411Z,98546.26
2018-09-28T20:08:17.466Z,98542.78
2018-09-28T20:10:46.742Z,98536.58
2018-09-28T20:13:15.852Z,98530.33
2018-09-28T20:15:45.029Z,98535.38
2018-09-28T20:18:14.194Z,98543.80
2018-09-28T20:20:42.425Z,98550.30
2018-09-28T20:23:10.624Z,98554.14
2018-09-28T20:25:38.874Z,98551.94
2018-09-28T20:28:07.161Z,98551.53
2018-09-28T20:30:36.132Z,98549.44
2018-09-28T20:33:05.169Z,98556.34
2018-09-28T20:35:33.410Z,98570.41
2018-09-28T20:38:01.669Z,98576.16
2018-09-28T20:40:29.823Z,98581.24
2018-09-28T20:42:58.067Z,98597.65
2018-09-28T20:45:26.391Z,98602.95
2018-09-28T20:47:54.561Z,98601.84
2018-09-28T20:50:22.773Z,98606.87
2018-09-28T20:52:50.937Z,98609.86
2018-09-28T20:55:19.213Z,98615.55
2018-09-28T20:57:47.372Z,98616.86
2018-09-28T21:00:15.560Z,98615.30
2018-09-28T21:02:43.901Z,98619.84
2018-09-28T21:05:13.023Z,98613.67
2018-09-28T21:07:41.201Z,98616.86
2018-09-28T21:10:09.421Z,98628.78
2018-09-28T21:12:37.600Z,98631.97
2018-09-28T21:15:06.441Z,98637.45
2018-09-28T21:17:34.630Z,98634.36
2018-09-28T21:20:02.889Z,98633.22
2018-09-28T21:22:31.362Z,98633.47
2018-09-28T21:24:59.528Z,98637.21
2018-09-28T21:27:27.746Z,98645.69
2018-09-28T21:29:55.903Z,98645.22
2018-09-28T21:32:24.157Z,98643.52
2018-09-28T21:34:52.422Z,98650.59
2018-09-28T21:37:20.606Z,98648.09
2018-09-28T21:39:48.752Z,98646.05
2018-09-28T21:42:16.922Z,98652.31
2018-09-28T21:44:45.110Z,98647.20
2018-09-28T21:47:13.334Z,98658.59
2018-09-28T21:49:41.492Z,98650.61
2018-09-28T21:52:09.729Z,98651.64
2018-09-28T21:54:37.882Z,98656.20
2018-09-28T21:57:06.058Z,98654.95
2018-09-28T21:59:34.483Z,98657.47
2018-09-28T22:02:02.649Z,98658.16
2018-09-28T22:04:30.932Z,98655.77
2018-09-28T22:06:59.088Z,98659.16
2018-09-28T22:09:27.350Z,98650.52
2018-09-28T22:11:55.529Z,98657.80
2018-09-28T22:14:23.689Z,98647.88
2018-09-28T22:16:51.991Z,98650.81
2018-09-28T22:19:20.185Z,98656.92
2018-09-28T22:21:48.457Z,98659.65
2018-09-28T22:24:16.708Z,98667.81
2018-09-28T22:26:44.880Z,98670.78
2018-09-28T22:29:13.040Z,98677.95
2018-09-28T22:31:41.227Z,98677.91
2018-09-28T22:34:09.418Z,98685.53
2018-09-28T22:36:37.572Z,98684.48
2018-09-28T22:39:07.700Z,98686.42
2018-09-28T22:41:35.905Z,98686.19
2018-09-28T22:44:04.054Z,98672.97
2018-09-28T22:46:32.209Z,98675.34
2018-09-28T22:49:00.389Z,98677.28
2018-09-28T22:51:28.666Z,98677.06
2018-09-28T22:53:56.845Z,98684.78
2018-09-28T22:56:25.013Z,98684.34
2018-09-28T22:58:53.285Z,98689.59
2018-09-28T23:01:21.463Z,98688.70
2018-09-28T23:03:50.027Z,98693.50
2018-09-28T23:06:18.197Z,98702.12
2018-09-28T23:08:46.420Z,98698.94
2018-09-28T23:11:15.128Z,98701.86
2018-09-28T23:13:43.318Z,98705.39
2018-09-28T23:16:11.544Z,98716.66
2018-09-28T23:18:39.720Z,98718.95
2018-09-28T23:21:07.981Z,98714.20
2018-09-28T23:23:36.181Z,98717.69
2018-09-28T23:26:04.356Z,98722.81
2018-09-28T23:28:32.604Z,98719.17
2018-09-28T23:31:00.780Z,98729.41
2018-09-28T23:33:28.964Z,98731.58
2018-09-28T23:35:57.104Z,98725.78
2018-09-28T23:38:25.304Z,98730.19
2018-09-28T23:40:53.472Z,98729.28
2018-09-28T23:43:21.662Z,98734.52
2018-09-28T23:45:49.862Z,98735.19
2018-09-28T23:48:19.081Z,98743.72
2018-09-28T23:50:47.509Z,98745.45
2018-09-28T23:53:15.726Z,98746.21
2018-09-28T23:55:44.002Z,98748.97
2018-09-28T23:58:12.205Z,98741.48
